Weather
Algoa Flight CentreBookingsEnt 1064(rendered 2016-09-25 03:55:49) Member: Guest [54.147.158.28- private]
Go back one day  Today  Go forward one day
00h00-24h00  00h00-12h00  12h00-24h00  06h00-22h00  08h00-18h00   Bookingsheet Key 

Sunrise: 06:01B

Full view Bookings for Sunday, 25th September 2016

New SACAA Exam Regulations have come into effect: 7 days waiting period across the board for exams failed - AIC Series C 005/2016 23 June 2016

Sunset: 18:16B

 06h0007h0008h0009h0010h0011h0012h0013h0014h0015h0016h0017h0018h0019h0020h0021h00

ZU-WCG

Airplane company NTCA

Booked

ZS-KEO

Cessna C152 Single Engine

Booked

Booked

Booked

ZS-MXS

Cessna C152 Single Engine

ZS-PKO

Cessna C152 Single Engine

ZS-PKS

Cessna C152 Single Engine

Booked

ZS-KSF

Cessna C172 Single Engine 4 seater

ZS-MBP

Cessna C172 Single Engine 4 seater

ZS-KND

Cessna C72R Complex Single Engine

Elite S812 SE

Elite Simulators FNPTII

Elite S812 ME

Elite Simulators FNPT II

ZS-IHX

Beechcraft Multi Engine Piston

Maintenance

ZS-POI

GippsAero G8 Airvan

FAPE METAR 241900Z 25017KT 9999 FEW042 17/13 Q1021 NOSIG
FAGG METAR 242100Z AUTO 32006KT 9999 FEW016/// BKN028/// OVC035// / 14/12 Q1023

Mike Helliwell

CEO

Mike Thompson

Chief Flight Instructor

Russell Abrey

Flight Instructor Gr II

Clayton Staples

Flight Instructor Gr II

Booked

Booked

Booked

Booked

Russell Phillips

Flight Instructor Gr II

Dave Anderson

Flight Instructor Gr II

Eric van der Merwe

Flight Instructor GrII

Abraham Muhumuza

Ground School

Stephan Smit

MADIBA SIM STUDENTS ONLY

Sophia Sudak

TEFL ENGLISH TEACHER

George Stewart

DFE

Tony van Vliet

DFE

FAPE TAF 241600Z 2418/2518 25015KT 9999 BKN020    PROB40 TEMPO 2503/2506 5000 -RA BKN015    BECMG 2504/2506 27005KT    BECMG 2506/2508 09010KT    BECMG 2516/2518 08020KT    TEMPO 2516/2518 07020G30KT    TX20/2512ZTN13/2503Z
FAGG TAF 241600Z 2418/2518 26013KT 9999 SCT012 BKN020    PROB30 TEMPO 2418/2421 4500 -RA BKN009    FM250700 04005KT 9999 FEW025    BECMG 2510/2512 11010KT    TX21/2512ZTN10/2505Z

IF Slots

IF Slots

Down Lecture Roo

Downstairs

Exam Station 1

CAA Exams

Exam Station 2

CAA Exams

Exam Station 3

CAA Exams

Upstairs Lecture

Upstairs

Braai Area

Outdoor Braai

Gremlins Grotto

Pub

Clubhouse

Functions

Logger

GPS Logger

 06h0007h0008h0009h0010h0011h0012h0013h0014h0015h0016h0017h0018h0019h0020h0021h00

index.php last modified on Wed 13 Jun 2012 7:48 PM